createdAt,value
2022-12-22T00:01:59.399Z,9.93
2022-12-22T00:04:45.090Z,9.23
2022-12-22T00:07:30.669Z,9.62
2022-12-22T00:10:16.337Z,9.05
2022-12-22T00:13:01.953Z,8.00
2022-12-22T00:15:50.572Z,8.84
2022-12-22T00:18:35.922Z,9.54
2022-12-22T00:21:21.445Z,9.05
2022-12-22T00:24:06.976Z,9.34
2022-12-22T00:26:53.629Z,9.91
2022-12-22T00:29:39.501Z,9.40
2022-12-22T00:32:25.311Z,9.13
2022-12-22T00:35:10.839Z,8.98
2022-12-22T00:37:56.860Z,9.34
2022-12-22T00:40:46.668Z,8.40
2022-12-22T00:43:32.674Z,9.34
2022-12-22T00:46:20.292Z,8.94
2022-12-22T00:49:05.703Z,9.27
2022-12-22T00:51:51.435Z,9.51
2022-12-22T00:54:37.788Z,9.33
2022-12-22T00:57:24.431Z,10.01
2022-12-22T01:00:09.951Z,9.68
2022-12-22T01:02:55.703Z,9.51
2022-12-22T01:05:41.107Z,10.69
2022-12-22T01:08:28.220Z,10.89
2022-12-22T01:11:13.842Z,9.37
2022-12-22T01:13:59.409Z,9.31
2022-12-22T01:16:44.933Z,9.09
2022-12-22T01:19:30.709Z,8.94
2022-12-22T01:22:16.194Z,9.12
2022-12-22T01:25:02.793Z,9.50
2022-12-22T01:27:48.345Z,9.22
2022-12-22T01:30:34.016Z,9.37
2022-12-22T01:33:19.653Z,9.07
2022-12-22T01:36:05.323Z,8.51
2022-12-22T01:38:51.032Z,7.98
2022-12-22T01:41:39.137Z,8.39
2022-12-22T01:44:35.260Z,8.80
2022-12-22T01:47:48.731Z,8.70
2022-12-22T01:50:35.220Z,9.22
2022-12-22T01:53:21.808Z,8.84
2022-12-22T01:56:07.357Z,9.19
2022-12-22T01:58:56.119Z,9.59
2022-12-22T02:01:41.557Z,9.58
2022-12-22T02:04:27.118Z,9.73
2022-12-22T02:07:15.872Z,10.77
2022-12-22T02:10:17.186Z,10.93
2022-12-22T02:13:19.544Z,9.79
2022-12-22T02:16:12.300Z,9.71
2022-12-22T02:19:08.698Z,9.79
2022-12-22T02:22:06.595Z,9.77
2022-12-22T02:24:54.492Z,9.22
2022-12-22T02:27:39.518Z,9.25
2022-12-22T02:30:28.330Z,8.93
2022-12-22T02:33:13.755Z,8.54
2022-12-22T02:36:01.800Z,8.19
2022-12-22T02:39:06.157Z,8.54
2022-12-22T02:42:29.989Z,8.74
2022-12-22T02:45:54.256Z,9.32
2022-12-22T02:48:48.950Z,9.03
2022-12-22T02:51:40.875Z,8.31
2022-12-22T02:54:26.447Z,8.64
2022-12-22T02:57:11.856Z,8.03
2022-12-22T02:59:57.472Z,8.26
2022-12-22T03:02:43.204Z,8.10
2022-12-22T03:05:28.808Z,6.93
2022-12-22T03:08:14.391Z,7.30
2022-12-22T03:10:59.993Z,7.48
2022-12-22T03:13:45.559Z,8.17
2022-12-22T03:16:31.239Z,9.10
2022-12-22T03:19:17.013Z,8.60
2022-12-22T03:22:02.569Z,8.66
2022-12-22T03:24:48.258Z,9.15
2022-12-22T03:27:15.163Z,8.91
2022-12-22T03:29:42.043Z,8.58
2022-12-22T03:32:08.898Z,8.59
2022-12-22T03:34:35.769Z,8.21
2022-12-22T03:37:02.398Z,7.75
2022-12-22T03:39:29.240Z,7.41
2022-12-22T03:42:14.655Z,7.34
2022-12-22T03:45:00.196Z,7.47
2022-12-22T03:47:27.054Z,7.23
2022-12-22T03:49:55.740Z,8.11
2022-12-22T03:52:22.681Z,8.01
2022-12-22T03:54:49.607Z,8.32
2022-12-22T03:57:16.434Z,8.69
2022-12-22T03:59:52.886Z,9.55
2022-12-22T04:02:19.798Z,8.77
2022-12-22T04:04:46.768Z,9.30
2022-12-22T04:07:13.480Z,8.92
2022-12-22T04:10:00.263Z,9.14
2022-12-22T04:12:45.837Z,8.32
2022-12-22T04:15:12.678Z,9.76
2022-12-22T04:17:39.338Z,7.96
2022-12-22T04:20:07.213Z,7.32
2022-12-22T04:22:34.029Z,6.53
2022-12-22T04:25:00.687Z,8.01
2022-12-22T04:27:27.532Z,8.22
2022-12-22T04:29:54.195Z,8.51
2022-12-22T04:32:21.061Z,8.68
2022-12-22T04:34:47.908Z,9.11
2022-12-22T04:37:17.500Z,9.14
2022-12-22T04:39:51.675Z,9.30
2022-12-22T04:42:18.523Z,9.19
2022-12-22T04:44:45.226Z,9.29
2022-12-22T04:47:12.094Z,9.49
2022-12-22T04:49:39.999Z,9.60
2022-12-22T04:52:06.883Z,9.69
2022-12-22T04:54:34.051Z,9.73
2022-12-22T04:57:01.216Z,9.70
2022-12-22T04:59:28.065Z,9.79
2022-12-22T05:01:54.959Z,9.70
2022-12-22T05:04:23.869Z,9.60
2022-12-22T05:06:50.962Z,9.68
2022-12-22T05:09:17.660Z,9.98
2022-12-22T05:11:44.511Z,10.21
2022-12-22T05:14:11.370Z,10.55
2022-12-22T05:16:38.303Z,9.99
2022-12-22T05:19:05.234Z,9.74
2022-12-22T05:21:32.114Z,10.03
2022-12-22T05:23:58.959Z,10.02
2022-12-22T05:26:25.620Z,9.19
2022-12-22T05:28:52.762Z,9.34
2022-12-22T05:31:25.598Z,9.81
2022-12-22T05:33:52.651Z,9.63
2022-12-22T05:36:19.915Z,9.66
2022-12-22T05:38:46.887Z,9.57
2022-12-22T05:41:14.294Z,9.62
2022-12-22T05:43:41.416Z,9.81
2022-12-22T05:46:11.342Z,9.82
2022-12-22T05:48:39.861Z,10.84
2022-12-22T05:51:08.513Z,10.68
2022-12-22T05:53:35.547Z,10.44
2022-12-22T05:56:02.596Z,10.28
2022-12-22T05:58:29.450Z,9.59
2022-12-22T06:00:57.256Z,9.55
2022-12-22T06:03:25.220Z,9.60
2022-12-22T06:05:52.179Z,9.46
2022-12-22T06:08:19.378Z,9.57
2022-12-22T06:10:46.469Z,8.71
2022-12-22T06:13:13.322Z,9.77
2022-12-22T06:15:40.224Z,9.44
2022-12-22T06:18:07.089Z,8.82
2022-12-22T06:20:33.750Z,9.16
2022-12-22T06:23:00.675Z,9.02
2022-12-22T06:25:27.505Z,7.96
2022-12-22T06:27:54.501Z,7.83
2022-12-22T06:30:24.456Z,7.37
2022-12-22T06:32:54.305Z,7.92
2022-12-22T06:35:21.003Z,8.64
2022-12-22T06:37:47.849Z,8.91
2022-12-22T06:40:15.507Z,8.74
2022-12-22T06:43:08.109Z,8.05
2022-12-22T06:45:41.204Z,8.27
2022-12-22T06:48:09.431Z,8.32
2022-12-22T06:50:36.356Z,7.15
2022-12-22T06:53:03.899Z,6.77
2022-12-22T06:55:30.824Z,7.42
2022-12-22T06:57:58.632Z,8.92
2022-12-22T07:00:25.606Z,8.78
2022-12-22T07:02:52.820Z,8.88
2022-12-22T07:05:20.200Z,9.54
2022-12-22T07:07:47.276Z,9.59
2022-12-22T07:10:14.175Z,10.02
2022-12-22T07:12:41.470Z,10.07
2022-12-22T07:15:08.976Z,9.60
2022-12-22T07:17:35.889Z,9.39
2022-12-22T07:20:02.984Z,9.51
2022-12-22T07:22:30.981Z,8.40
2022-12-22T07:24:58.983Z,7.90
2022-12-22T07:27:26.039Z,8.48
2022-12-22T07:29:52.893Z,8.89
2022-12-22T07:32:19.533Z,8.24
2022-12-22T07:34:46.598Z,8.12
2022-12-22T07:37:13.997Z,8.56
2022-12-22T07:39:41.059Z,9.64
2022-12-22T07:42:26.387Z,9.82
2022-12-22T07:44:53.215Z,9.22
2022-12-22T07:47:19.876Z,9.13
2022-12-22T07:50:05.431Z,9.25
2022-12-22T07:52:32.305Z,9.42
2022-12-22T07:54:59.317Z,9.56
2022-12-22T07:57:26.455Z,9.73
2022-12-22T07:59:54.163Z,10.26
2022-12-22T08:02:21.171Z,10.86
2022-12-22T08:04:48.273Z,10.61
2022-12-22T08:07:15.229Z,10.45
2022-12-22T08:09:42.104Z,10.57
2022-12-22T08:12:09.161Z,10.82
2022-12-22T08:14:35.995Z,10.28
2022-12-22T08:17:02.634Z,10.62
2022-12-22T08:19:29.640Z,10.00
2022-12-22T08:21:56.515Z,10.00
2022-12-22T08:24:23.391Z,10.19
2022-12-22T08:26:53.997Z,10.23
2022-12-22T08:29:33.838Z,10.45
2022-12-22T08:32:00.994Z,10.16
2022-12-22T08:34:28.129Z,10.18
2022-12-22T08:36:57.982Z,9.91
2022-12-22T08:39:26.195Z,9.92
2022-12-22T08:41:53.658Z,10.20
2022-12-22T08:44:30.764Z,9.96
2022-12-22T08:46:59.267Z,10.62
2022-12-22T08:49:26.815Z,10.59
2022-12-22T08:51:54.549Z,11.06
2022-12-22T08:54:21.617Z,10.66
2022-12-22T08:56:49.666Z,10.70
2022-12-22T08:59:16.764Z,10.80
2022-12-22T09:01:47.385Z,10.77
2022-12-22T09:04:15.492Z,11.33
2022-12-22T09:06:42.459Z,10.70
2022-12-22T09:09:10.837Z,10.18
2022-12-22T09:11:38.332Z,9.61
2022-12-22T09:14:05.744Z,8.84
2022-12-22T09:16:34.068Z,10.35
2022-12-22T09:19:01.455Z,10.66
2022-12-22T09:21:29.051Z,9.53
2022-12-22T09:23:56.929Z,10.48
2022-12-22T09:26:25.956Z,10.99
2022-12-22T09:28:52.887Z,11.06
2022-12-22T09:31:21.494Z,10.36
2022-12-22T09:33:48.712Z,9.90
2022-12-22T09:36:18.415Z,9.90
2022-12-22T09:38:45.532Z,9.61
2022-12-22T09:41:23.676Z,9.74
2022-12-22T09:43:50.618Z,9.23
2022-12-22T09:46:28.828Z,9.18
2022-12-22T09:48:56.139Z,9.26
2022-12-22T09:51:27.174Z,9.07
2022-12-22T09:53:59.619Z,9.55
2022-12-22T09:56:28.822Z,10.03
2022-12-22T09:58:56.115Z,10.07
2022-12-22T10:01:35.716Z,10.34
2022-12-22T10:04:29.976Z,11.14
2022-12-22T10:07:02.811Z,10.97
2022-12-22T10:09:50.654Z,11.40
2022-12-22T10:12:24.357Z,11.69
2022-12-22T10:14:52.923Z,11.72
2022-12-22T10:17:24.117Z,11.79
2022-12-22T10:19:53.678Z,12.08
2022-12-22T10:22:46.077Z,11.73
2022-12-22T10:25:27.233Z,11.66
2022-12-22T10:28:01.772Z,11.38
2022-12-22T10:30:37.928Z,11.52
2022-12-22T10:33:11.773Z,11.40
2022-12-22T10:35:47.780Z,11.21
2022-12-22T10:38:27.889Z,11.12
2022-12-22T10:41:02.075Z,11.24
2022-12-22T10:43:40.323Z,11.06
2022-12-22T10:46:07.325Z,11.02
2022-12-22T10:48:36.910Z,11.87
2022-12-22T10:51:06.879Z,11.18
2022-12-22T10:53:52.772Z,11.29
2022-12-22T10:56:32.363Z,10.84
2022-12-22T10:59:02.198Z,11.16
2022-12-22T11:01:36.904Z,10.86
2022-12-22T11:04:26.239Z,10.49
2022-12-22T11:06:54.782Z,10.76
2022-12-22T11:09:33.891Z,11.14
2022-12-22T11:12:32.499Z,11.19
2022-12-22T11:15:24.588Z,11.42
2022-12-22T11:17:58.440Z,11.23
2022-12-22T11:20:47.886Z,11.25
2022-12-22T11:23:38.473Z,11.38
2022-12-22T11:26:31.685Z,11.41
2022-12-22T11:29:17.104Z,10.83
2022-12-22T11:31:56.120Z,11.09
2022-12-22T11:34:58.778Z,11.34
2022-12-22T11:37:47.719Z,11.26
2022-12-22T11:40:33.688Z,11.18
2022-12-22T11:43:34.706Z,11.06
2022-12-22T11:46:27.331Z,11.23
2022-12-22T11:49:19.297Z,11.53
2022-12-22T11:52:10.339Z,11.70
2022-12-22T11:55:25.796Z,11.23
2022-12-22T11:58:08.356Z,11.16
2022-12-22T12:01:13.715Z,11.14
2022-12-22T12:03:30.018Z,11.18
2022-12-22T12:06:15.441Z,11.26
2022-12-22T12:09:04.927Z,10.60
2022-12-22T12:11:56.202Z,11.34
2022-12-22T12:14:34.276Z,11.13
2022-12-22T12:17:13.414Z,10.98
2022-12-22T12:19:58.757Z,11.01
2022-12-22T12:22:36.852Z,10.81
2022-12-22T12:25:26.237Z,10.98
2022-12-22T12:28:08.069Z,11.28
2022-12-22T12:30:52.543Z,12.00
2022-12-22T12:33:36.607Z,12.08
2022-12-22T12:36:38.598Z,12.15
2022-12-22T12:39:24.488Z,12.36
2022-12-22T12:42:09.805Z,12.99
2022-12-22T12:44:37.294Z,12.57
2022-12-22T12:47:22.257Z,11.77
2022-12-22T12:49:53.217Z,12.01
2022-12-22T12:52:40.104Z,12.49
2022-12-22T12:55:34.635Z,13.52
2022-12-22T12:58:04.107Z,13.47
2022-12-22T13:00:34.105Z,13.39
2022-12-22T13:03:02.631Z,12.82
2022-12-22T13:05:33.502Z,12.63
2022-12-22T13:08:25.617Z,12.68
2022-12-22T13:10:55.620Z,13.57
2022-12-22T13:13:22.431Z,12.65
2022-12-22T13:16:07.856Z,11.62
2022-12-22T13:18:34.764Z,10.84
2022-12-22T13:24:25.152Z,9.64
2022-12-22T13:26:55.388Z,9.14
2022-12-22T13:29:22.216Z,9.13
2022-12-22T13:32:01.315Z,8.94
2022-12-22T13:35:20.233Z,8.23
2022-12-22T13:37:43.563Z,9.12
2022-12-22T13:40:25.827Z,8.00
2022-12-22T13:42:55.547Z,8.72
2022-12-22T13:45:43.949Z,7.71
2022-12-22T13:48:35.926Z,7.60
2022-12-22T13:51:34.496Z,7.73
2022-12-22T13:54:09.907Z,8.26
2022-12-22T13:56:42.105Z,7.55
2022-12-22T13:59:21.895Z,6.71
2022-12-22T14:01:56.767Z,6.80
2022-12-22T14:04:23.886Z,7.18
2022-12-22T14:06:50.765Z,7.14
2022-12-22T14:09:18.695Z,6.52
2022-12-22T14:12:12.001Z,6.60
2022-12-22T14:14:41.365Z,7.44
2022-12-22T14:17:26.251Z,6.23
2022-12-22T14:19:55.599Z,5.39
2022-12-22T14:22:26.047Z,6.27
2022-12-22T14:24:56.543Z,6.80
2022-12-22T14:27:23.331Z,7.01
2022-12-22T14:29:50.030Z,5.93
2022-12-22T14:32:38.526Z,6.23
2022-12-22T14:35:21.570Z,7.10
2022-12-22T14:37:49.906Z,7.74
2022-12-22T14:40:37.681Z,7.94
2022-12-22T14:43:07.151Z,7.34
2022-12-22T14:45:34.342Z,7.44
2022-12-22T14:48:01.244Z,6.88
2022-12-22T14:50:28.391Z,7.37
2022-12-22T14:52:57.702Z,6.55
2022-12-22T14:55:49.383Z,7.24
2022-12-22T14:58:23.081Z,6.67
2022-12-22T15:01:14.648Z,6.49
2022-12-22T15:03:42.358Z,6.22
2022-12-22T15:06:27.660Z,7.07
2022-12-22T15:09:09.144Z,7.14
2022-12-22T15:11:38.500Z,7.18
2022-12-22T15:14:05.443Z,7.00
2022-12-22T15:16:32.376Z,7.53
2022-12-22T15:18:59.280Z,7.19
2022-12-22T15:21:25.960Z,6.77
2022-12-22T15:23:52.780Z,6.40
2022-12-22T15:26:19.468Z,7.00
2022-12-22T15:28:46.346Z,7.64
2022-12-22T15:31:17.344Z,8.30
2022-12-22T15:33:45.034Z,8.02
2022-12-22T15:36:13.684Z,7.29
2022-12-22T15:38:42.345Z,7.18
2022-12-22T15:41:09.268Z,7.15
2022-12-22T15:46:23.174Z,8.54
2022-12-22T15:48:50.162Z,7.73
2022-12-22T15:51:25.776Z,7.42
2022-12-22T15:53:53.538Z,8.02
2022-12-22T15:56:22.691Z,8.31
2022-12-22T15:58:49.998Z,8.64
2022-12-22T16:01:17.151Z,8.38
2022-12-22T16:03:44.269Z,8.53
2022-12-22T16:06:16.393Z,9.01
2022-12-22T16:08:48.916Z,7.29
2022-12-22T16:11:16.050Z,7.93
2022-12-22T16:13:42.928Z,8.37
2022-12-22T16:16:09.862Z,8.01
2022-12-22T16:18:36.885Z,8.69
2022-12-22T16:21:12.249Z,9.32
2022-12-22T16:23:41.450Z,9.34
2022-12-22T16:26:08.882Z,10.12
2022-12-22T16:28:35.772Z,11.26
2022-12-22T16:31:02.738Z,10.89
2022-12-22T16:33:29.618Z,10.52
2022-12-22T16:35:56.249Z,10.29
2022-12-22T16:38:23.106Z,9.21
2022-12-22T16:40:52.315Z,9.24
2022-12-22T16:43:50.387Z,9.93
2022-12-22T16:46:19.300Z,9.79
2022-12-22T16:48:51.365Z,10.53
2022-12-22T16:51:24.854Z,10.73
2022-12-22T16:53:51.843Z,11.08
2022-12-22T16:56:24.999Z,10.75
2022-12-22T16:58:51.831Z,10.57
2022-12-22T17:01:25.373Z,11.25
2022-12-22T17:03:52.569Z,11.39
2022-12-22T17:06:19.547Z,10.81
2022-12-22T17:08:46.889Z,10.79
2022-12-22T17:11:24.297Z,8.96
2022-12-22T17:13:51.963Z,9.64
2022-12-22T17:16:23.280Z,10.14
2022-12-22T17:18:50.263Z,10.49
2022-12-22T17:21:19.035Z,10.66
2022-12-22T17:23:50.215Z,11.10
2022-12-22T17:26:20.158Z,10.96
2022-12-22T17:28:47.906Z,11.05
2022-12-22T17:31:17.274Z,11.10
2022-12-22T17:33:44.253Z,11.43
2022-12-22T17:36:18.711Z,11.33
2022-12-22T17:38:45.987Z,11.38
2022-12-22T17:41:17.377Z,11.51
2022-12-22T17:43:45.393Z,10.63
2022-12-22T17:46:20.251Z,10.64
2022-12-22T17:48:47.743Z,10.94
2022-12-22T17:51:25.643Z,11.04
2022-12-22T17:53:53.166Z,11.41
2022-12-22T17:56:22.294Z,10.79
2022-12-22T17:58:49.906Z,10.11
2022-12-22T18:01:21.974Z,10.67
2022-12-22T18:03:49.139Z,11.01
2022-12-22T18:06:18.287Z,11.12
2022-12-22T18:08:45.655Z,11.36
2022-12-22T18:11:12.813Z,11.20
2022-12-22T18:13:39.708Z,11.81
2022-12-22T18:16:07.689Z,11.79
2022-12-22T18:18:35.017Z,11.30
2022-12-22T18:21:05.933Z,10.61
2022-12-22T18:23:35.057Z,8.76
2022-12-22T18:26:01.959Z,8.27
2022-12-22T18:28:28.832Z,7.95
2022-12-22T18:30:55.704Z,7.74
2022-12-22T18:33:22.572Z,8.75
2022-12-22T18:35:49.639Z,8.00
2022-12-22T18:38:27.966Z,8.06
2022-12-22T18:40:55.301Z,7.13
2022-12-22T18:43:22.372Z,8.40
2022-12-22T18:45:49.353Z,8.80
2022-12-22T18:48:16.496Z,8.76
2022-12-22T18:50:43.649Z,9.27
2022-12-22T18:53:24.874Z,8.87
2022-12-22T18:55:51.857Z,8.69
2022-12-22T18:58:18.753Z,8.89
2022-12-22T19:00:45.745Z,8.12
2022-12-22T19:03:17.793Z,8.04
2022-12-22T19:05:45.660Z,9.31
2022-12-22T19:08:16.738Z,9.93
2022-12-22T19:10:55.198Z,10.71
2022-12-22T19:13:38.890Z,10.50
2022-12-22T19:16:06.843Z,9.37
2022-12-22T19:18:33.766Z,10.50
2022-12-22T19:21:00.646Z,9.83
2022-12-22T19:23:27.518Z,10.68
2022-12-22T19:26:08.396Z,9.80
2022-12-22T19:28:41.470Z,10.11
2022-12-22T19:31:10.320Z,10.42
2022-12-22T19:33:41.678Z,10.22
2022-12-22T19:36:15.585Z,10.71
2022-12-22T19:38:44.013Z,11.40
2022-12-22T19:41:23.625Z,11.52
2022-12-22T19:43:50.509Z,12.24
2022-12-22T19:46:17.430Z,10.98
2022-12-22T19:48:46.453Z,11.33
2022-12-22T19:51:17.603Z,10.95
2022-12-22T19:53:44.828Z,10.44
2022-12-22T19:56:20.397Z,11.14
2022-12-22T19:58:47.315Z,11.35
2022-12-22T20:01:14.230Z,11.09
2022-12-22T20:03:41.231Z,11.25
2022-12-22T20:06:09.061Z,12.56
2022-12-22T20:08:36.310Z,12.06
2022-12-22T20:11:03.318Z,10.72
2022-12-22T20:13:32.182Z,10.05
2022-12-22T20:15:59.496Z,9.72
2022-12-22T20:18:29.288Z,9.09
2022-12-22T20:21:01.796Z,8.58
2022-12-22T20:23:29.989Z,8.54
2022-12-22T20:26:06.295Z,9.09
2022-12-22T20:28:37.212Z,8.81
2022-12-22T20:31:05.510Z,10.20
2022-12-22T20:33:33.066Z,10.55
2022-12-22T20:36:01.258Z,11.09
2022-12-22T20:38:32.287Z,11.29
2022-12-22T20:40:59.803Z,12.01
2022-12-22T20:43:28.330Z,12.01
2022-12-22T20:45:57.693Z,11.99
2022-12-22T20:48:39.424Z,11.95
2022-12-22T20:51:10.483Z,11.79
2022-12-22T20:53:37.347Z,11.80
2022-12-22T20:56:04.437Z,10.90
2022-12-22T20:58:34.403Z,11.59
2022-12-22T21:01:02.026Z,11.79
2022-12-22T21:03:29.017Z,11.82
2022-12-22T21:05:56.001Z,13.54
2022-12-22T21:08:25.428Z,12.63
2022-12-22T21:10:54.061Z,12.42
2022-12-22T21:13:21.133Z,12.97
2022-12-22T21:15:50.941Z,12.38
2022-12-22T21:18:22.737Z,13.11
2022-12-22T21:20:50.633Z,13.78
2022-12-22T21:23:17.792Z,12.99
2022-12-22T21:25:47.258Z,12.49
2022-12-22T21:28:37.454Z,12.51
2022-12-22T21:31:04.846Z,12.14
2022-12-22T21:33:31.744Z,11.96
2022-12-22T21:35:59.592Z,11.26
2022-12-22T21:38:28.083Z,12.12
2022-12-22T21:40:55.061Z,12.82
2022-12-22T21:43:21.956Z,12.75
2022-12-22T21:45:49.679Z,12.64
2022-12-22T21:48:19.927Z,12.39
2022-12-22T21:50:50.413Z,12.24
2022-12-22T21:53:21.985Z,12.15
2022-12-22T21:55:49.514Z,11.08
2022-12-22T21:58:16.738Z,11.11
2022-12-22T22:00:48.942Z,11.26
2022-12-22T22:03:16.697Z,10.99
2022-12-22T22:05:43.936Z,10.70
2022-12-22T22:08:12.454Z,10.77
2022-12-22T22:10:41.723Z,11.05
2022-12-22T22:13:10.199Z,11.07
2022-12-22T22:15:37.325Z,11.08
2022-12-22T22:18:07.219Z,11.15
2022-12-22T22:20:35.153Z,11.54
2022-12-22T22:23:02.140Z,10.52
2022-12-22T22:25:29.043Z,10.95
2022-12-22T22:27:59.568Z,10.91
2022-12-22T22:30:27.137Z,10.87
2022-12-22T22:32:54.999Z,10.45
2022-12-22T22:35:22.623Z,10.67
2022-12-22T22:37:52.718Z,10.46
2022-12-22T22:40:21.943Z,10.80
2022-12-22T22:42:49.205Z,10.53
2022-12-22T22:45:23.301Z,10.00
2022-12-22T22:47:51.321Z,10.30
2022-12-22T22:50:19.204Z,10.32
2022-12-22T22:52:46.445Z,9.49
2022-12-22T22:55:14.497Z,8.49
2022-12-22T22:57:42.671Z,8.26
2022-12-22T23:00:12.430Z,8.97
2022-12-22T23:02:39.429Z,9.13
2022-12-22T23:05:07.591Z,9.42
2022-12-22T23:07:35.830Z,9.07
2022-12-22T23:10:03.291Z,9.12
2022-12-22T23:12:30.125Z,9.93
2022-12-22T23:14:56.825Z,9.52
2022-12-22T23:17:24.127Z,9.67
2022-12-22T23:19:50.978Z,9.56
2022-12-22T23:22:17.641Z,9.77
2022-12-22T23:24:44.496Z,9.35
2022-12-22T23:27:11.597Z,9.66
2022-12-22T23:29:38.479Z,9.87
2022-12-22T23:32:05.859Z,10.29
2022-12-22T23:34:33.072Z,10.69
2022-12-22T23:36:59.898Z,10.34
2022-12-22T23:39:26.585Z,10.56
2022-12-22T23:41:53.421Z,10.10
2022-12-22T23:44:20.093Z,9.98
2022-12-22T23:46:47.004Z,9.94
2022-12-22T23:49:14.192Z,9.80
2022-12-22T23:51:41.110Z,9.62
2022-12-22T23:54:08.000Z,9.66
2022-12-22T23:56:34.849Z,9.92
2022-12-22T23:59:01.529Z,8.58
